Disclaimer

Please do not use the information listed here in-flight or in-navigation, as they are not provided to us by the airports but are provided by volunteers, so they might be outdated.

Search


Regions


Airport information page

Radio informations:
POTOSI TWR - 118.3 MHz
POTOSI RDO - 6622 MHz

Airport informations:
Latitude: 19° 32' 35.05" S
Longitude: 065° 43' 25.34" W
Elevation: 12913 feet - 3936 meters
Operating hours: N/A
Operating agency: Civil government, landing fees and diplomatic clearance may be required
Timezone: UTC-4
Fuel: Jet A1, without icing nhibitor.

Runway information:
06/24 - 9295 x 98 feet< - >2833 x 30 meters

Recent METARs:
SLPO 181400Z 05012KT 9999 SCT020 16/05 Q1036
SLPO 181400Z 05012KT 9999 SCT020 16/05 Q1036
SLPO 181400Z 05012KT 9999 SCT020 16/05 Q1036

Airport on the map: